sensor_id;sensor_type;location;lat;lon;timestamp;P1;durP1;ratioP1;P2;durP2;ratioP2
51384;SDS011;37478;55.682;37.462;2023-02-15T00:01:12;2.28;;;1.25;;
51384;SDS011;37478;55.682;37.462;2023-02-15T00:03:37;2.00;;;1.20;;
51384;SDS011;37478;55.682;37.462;2023-02-15T00:06:03;2.75;;;1.42;;
51384;SDS011;37478;55.682;37.462;2023-02-15T00:08:28;3.50;;;0.90;;
51384;SDS011;37478;55.682;37.462;2023-02-15T00:11:02;2.58;;;1.27;;
51384;SDS011;37478;55.682;37.462;2023-02-15T00:13:28;2.30;;;1.30;;
51384;SDS011;37478;55.682;37.462;2023-02-15T00:15:53;1.40;;;1.20;;
51384;SDS011;37478;55.682;37.462;2023-02-15T00:18:18;4.88;;;1.40;;
51384;SDS011;37478;55.682;37.462;2023-02-15T00:20:43;4.68;;;1.00;;
51384;SDS011;37478;55.682;37.462;2023-02-15T00:23:09;2.75;;;1.60;;
51384;SDS011;37478;55.682;37.462;2023-02-15T00:25:34;5.50;;;2.65;;
51384;SDS011;37478;55.682;37.462;2023-02-15T00:27:59;5.03;;;1.30;;
51384;SDS011;37478;55.682;37.462;2023-02-15T00:30:25;1.63;;;1.08;;
51384;SDS011;37478;55.682;37.462;2023-02-15T00:32:50;4.38;;;1.02;;
51384;SDS011;37478;55.682;37.462;2023-02-15T00:35:15;2.78;;;1.60;;
51384;SDS011;37478;55.682;37.462;2023-02-15T00:37:41;1.48;;;0.75;;
51384;SDS011;37478;55.682;37.462;2023-02-15T00:40:06;2.35;;;1.08;;
51384;SDS011;37478;55.682;37.462;2023-02-15T00:42:31;7.65;;;2.08;;
51384;SDS011;37478;55.682;37.462;2023-02-15T00:44:57;1.88;;;1.15;;
51384;SDS011;37478;55.682;37.462;2023-02-15T00:47:22;2.83;;;1.65;;
51384;SDS011;37478;55.682;37.462;2023-02-15T00:49:49;4.43;;;1.65;;
51384;SDS011;37478;55.682;37.462;2023-02-15T00:52:14;3.67;;;1.63;;
51384;SDS011;37478;55.682;37.462;2023-02-15T00:54:40;3.10;;;1.70;;
51384;SDS011;37478;55.682;37.462;2023-02-15T00:57:05;3.38;;;1.23;;
51384;SDS011;37478;55.682;37.462;2023-02-15T00:59:30;2.35;;;1.42;;
51384;SDS011;37478;55.682;37.462;2023-02-15T01:01:55;1.73;;;1.23;;
51384;SDS011;37478;55.682;37.462;2023-02-15T01:04:21;3.80;;;1.67;;
51384;SDS011;37478;55.682;37.462;2023-02-15T01:06:46;2.22;;;1.35;;
51384;SDS011;37478;55.682;37.462;2023-02-15T01:09:11;3.03;;;2.05;;
51384;SDS011;37478;55.682;37.462;2023-02-15T01:11:38;4.45;;;1.38;;
51384;SDS011;37478;55.682;37.462;2023-02-15T01:14:03;6.07;;;1.45;;
51384;SDS011;37478;55.682;37.462;2023-02-15T01:16:30;7.05;;;1.90;;
51384;SDS011;37478;55.682;37.462;2023-02-15T01:18:56;5.88;;;1.45;;
51384;SDS011;37478;55.682;37.462;2023-02-15T01:21:22;2.10;;;1.55;;
51384;SDS011;37478;55.682;37.462;2023-02-15T01:23:47;4.22;;;1.45;;
51384;SDS011;37478;55.682;37.462;2023-02-15T01:26:13;6.22;;;2.20;;
51384;SDS011;37478;55.682;37.462;2023-02-15T01:28:38;7.65;;;2.03;;
51384;SDS011;37478;55.682;37.462;2023-02-15T01:31:25;0.98;;;0.90;;
51384;SDS011;37478;55.682;37.462;2023-02-15T01:33:49;3.63;;;1.65;;
51384;SDS011;37478;55.682;37.462;2023-02-15T01:36:15;3.30;;;1.38;;
51384;SDS011;37478;55.682;37.462;2023-02-15T01:38:42;3.25;;;1.67;;
51384;SDS011;37478;55.682;37.462;2023-02-15T01:41:07;3.10;;;1.17;;
51384;SDS011;37478;55.682;37.462;2023-02-15T01:43:55;5.80;;;1.58;;
51384;SDS011;37478;55.682;37.462;2023-02-15T01:46:39;14.48;;;1.98;;
51384;SDS011;37478;55.682;37.462;2023-02-15T01:49:13;2.25;;;1.20;;
51384;SDS011;37478;55.682;37.462;2023-02-15T01:51:39;3.03;;;1.08;;
51384;SDS011;37478;55.682;37.462;2023-02-15T01:54:11;4.78;;;1.70;;
51384;SDS011;37478;55.682;37.462;2023-02-15T01:56:40;2.30;;;1.40;;
51384;SDS011;37478;55.682;37.462;2023-02-15T01:59:07;3.50;;;1.13;;
51384;SDS011;37478;55.682;37.462;2023-02-15T02:01:34;1.55;;;1.35;;
51384;SDS011;37478;55.682;37.462;2023-02-15T02:06:33;2.35;;;1.10;;
51384;SDS011;37478;55.682;37.462;2023-02-15T02:09:00;4.25;;;1.63;;
51384;SDS011;37478;55.682;37.462;2023-02-15T02:11:26;5.47;;;1.40;;
51384;SDS011;37478;55.682;37.462;2023-02-15T02:13:51;2.80;;;0.90;;
51384;SDS011;37478;55.682;37.462;2023-02-15T02:16:20;4.57;;;1.67;;
51384;SDS011;37478;55.682;37.462;2023-02-15T02:39:56;3.08;;;0.82;;
51384;SDS011;37478;55.682;37.462;2023-02-15T02:44:52;1.88;;;1.45;;
51384;SDS011;37478;55.682;37.462;2023-02-15T02:50:22;3.55;;;1.65;;
51384;SDS011;37478;55.682;37.462;2023-02-15T02:52:49;3.60;;;1.50;;
51384;SDS011;37478;55.682;37.462;2023-02-15T02:57:45;2.38;;;1.48;;
51384;SDS011;37478;55.682;37.462;2023-02-15T03:00:12;2.00;;;1.27;;
51384;SDS011;37478;55.682;37.462;2023-02-15T03:02:39;3.33;;;1.60;;
51384;SDS011;37478;55.682;37.462;2023-02-15T03:05:07;6.35;;;1.80;;
51384;SDS011;37478;55.682;37.462;2023-02-15T03:07:34;2.85;;;1.60;;
51384;SDS011;37478;55.682;37.462;2023-02-15T03:10:02;5.35;;;2.60;;
51384;SDS011;37478;55.682;37.462;2023-02-15T03:12:32;3.65;;;1.33;;
51384;SDS011;37478;55.682;37.462;2023-02-15T03:15:02;3.30;;;1.75;;
51384;SDS011;37478;55.682;37.462;2023-02-15T03:17:29;4.47;;;1.65;;
51384;SDS011;37478;55.682;37.462;2023-02-15T03:19:57;2.25;;;1.58;;
51384;SDS011;37478;55.682;37.462;2023-02-15T03:22:32;8.38;;;2.38;;
51384;SDS011;37478;55.682;37.462;2023-02-15T03:25:47;7.00;;;2.17;;
51384;SDS011;37478;55.682;37.462;2023-02-15T03:27:49;2.00;;;1.57;;
51384;SDS011;37478;55.682;37.462;2023-02-15T03:32:43;5.40;;;2.42;;
51384;SDS011;37478;55.682;37.462;2023-02-15T03:35:09;4.15;;;1.85;;
51384;SDS011;37478;55.682;37.462;2023-02-15T03:37:47;2.67;;;1.17;;
51384;SDS011;37478;55.682;37.462;2023-02-15T03:40:18;3.25;;;1.17;;
51384;SDS011;37478;55.682;37.462;2023-02-15T03:43:17;3.00;;;1.38;;
51384;SDS011;37478;55.682;37.462;2023-02-15T03:45:46;5.40;;;1.63;;
51384;SDS011;37478;55.682;37.462;2023-02-15T03:48:33;4.53;;;2.28;;
51384;SDS011;37478;55.682;37.462;2023-02-15T03:51:00;2.20;;;1.30;;
51384;SDS011;37478;55.682;37.462;2023-02-15T03:56:11;9.25;;;1.92;;
51384;SDS011;37478;55.682;37.462;2023-02-15T03:58:36;2.70;;;1.92;;
51384;SDS011;37478;55.682;37.462;2023-02-15T04:06:49;5.72;;;1.98;;
51384;SDS011;37478;55.682;37.462;2023-02-15T04:09:15;2.63;;;1.35;;
51384;SDS011;37478;55.682;37.462;2023-02-15T04:11:58;4.95;;;1.33;;
51384;SDS011;37478;55.682;37.462;2023-02-15T04:14:24;4.35;;;1.75;;
51384;SDS011;37478;55.682;37.462;2023-02-15T04:17:08;2.15;;;1.30;;
51384;SDS011;37478;55.682;37.462;2023-02-15T04:19:33;1.50;;;1.10;;
51384;SDS011;37478;55.682;37.462;2023-02-15T04:22:17;3.33;;;1.50;;
51384;SDS011;37478;55.682;37.462;2023-02-15T04:25:01;8.48;;;1.77;;
51384;SDS011;37478;55.682;37.462;2023-02-15T04:27:39;2.55;;;1.23;;
51384;SDS011;37478;55.682;37.462;2023-02-15T04:30:05;3.35;;;1.50;;
51384;SDS011;37478;55.682;37.462;2023-02-15T04:32:31;4.30;;;1.90;;
51384;SDS011;37478;55.682;37.462;2023-02-15T04:34:56;2.80;;;1.52;;
51384;SDS011;37478;55.682;37.462;2023-02-15T04:37:22;2.85;;;1.20;;
51384;SDS011;37478;55.682;37.462;2023-02-15T04:39:47;2.83;;;1.67;;
51384;SDS011;37478;55.682;37.462;2023-02-15T04:42:12;1.85;;;1.33;;
51384;SDS011;37478;55.682;37.462;2023-02-15T04:44:38;5.75;;;2.08;;
51384;SDS011;37478;55.682;37.462;2023-02-15T04:47:03;4.72;;;2.78;;
51384;SDS011;37478;55.682;37.462;2023-02-15T04:49:28;6.88;;;3.17;;
51384;SDS011;37478;55.682;37.462;2023-02-15T04:51:54;2.88;;;2.10;;
51384;SDS011;37478;55.682;37.462;2023-02-15T04:54:19;2.50;;;1.42;;
51384;SDS011;37478;55.682;37.462;2023-02-15T04:56:44;4.50;;;1.83;;
51384;SDS011;37478;55.682;37.462;2023-02-15T04:59:10;1.90;;;1.67;;
51384;SDS011;37478;55.682;37.462;2023-02-15T05:01:35;2.15;;;1.90;;
51384;SDS011;37478;55.682;37.462;2023-02-15T05:04:01;2.70;;;1.38;;
51384;SDS011;37478;55.682;37.462;2023-02-15T05:06:26;3.58;;;1.60;;
51384;SDS011;37478;55.682;37.462;2023-02-15T05:08:51;7.93;;;1.63;;
51384;SDS011;37478;55.682;37.462;2023-02-15T05:11:17;2.33;;;1.90;;
51384;SDS011;37478;55.682;37.462;2023-02-15T05:13:42;3.65;;;1.65;;
51384;SDS011;37478;55.682;37.462;2023-02-15T05:16:07;4.82;;;1.48;;
51384;SDS011;37478;55.682;37.462;2023-02-15T05:18:33;7.22;;;2.30;;
51384;SDS011;37478;55.682;37.462;2023-02-15T05:20:58;2.75;;;1.65;;
51384;SDS011;37478;55.682;37.462;2023-02-15T05:23:23;4.88;;;2.03;;
51384;SDS011;37478;55.682;37.462;2023-02-15T05:25:49;3.90;;;1.98;;
51384;SDS011;37478;55.682;37.462;2023-02-15T05:28:36;1.25;;;1.15;;
51384;SDS011;37478;55.682;37.462;2023-02-15T05:31:11;3.40;;;1.95;;
51384;SDS011;37478;55.682;37.462;2023-02-15T05:33:37;5.32;;;2.55;;
51384;SDS011;37478;55.682;37.462;2023-02-15T05:36:03;5.38;;;2.10;;
51384;SDS011;37478;55.682;37.462;2023-02-15T05:38:28;3.75;;;1.75;;
51384;SDS011;37478;55.682;37.462;2023-02-15T05:40:54;2.95;;;1.63;;
51384;SDS011;37478;55.682;37.462;2023-02-15T05:43:19;2.05;;;1.48;;
51384;SDS011;37478;55.682;37.462;2023-02-15T05:45:48;4.93;;;2.13;;
51384;SDS011;37478;55.682;37.462;2023-02-15T05:48:14;4.80;;;2.30;;
51384;SDS011;37478;55.682;37.462;2023-02-15T05:50:39;5.20;;;2.28;;
51384;SDS011;37478;55.682;37.462;2023-02-15T05:53:04;3.10;;;1.33;;
51384;SDS011;37478;55.682;37.462;2023-02-15T05:55:30;4.65;;;2.33;;
51384;SDS011;37478;55.682;37.462;2023-02-15T05:57:55;3.55;;;1.60;;
51384;SDS011;37478;55.682;37.462;2023-02-15T06:00:20;6.28;;;2.47;;
51384;SDS011;37478;55.682;37.462;2023-02-15T06:02:46;5.80;;;2.22;;
51384;SDS011;37478;55.682;37.462;2023-02-15T06:05:11;7.65;;;2.45;;
51384;SDS011;37478;55.682;37.462;2023-02-15T06:07:36;4.93;;;2.45;;
51384;SDS011;37478;55.682;37.462;2023-02-15T06:10:02;8.05;;;3.28;;
51384;SDS011;37478;55.682;37.462;2023-02-15T06:12:27;6.20;;;2.25;;
51384;SDS011;37478;55.682;37.462;2023-02-15T06:14:52;3.20;;;2.00;;
51384;SDS011;37478;55.682;37.462;2023-02-15T06:17:18;8.10;;;3.40;;
51384;SDS011;37478;55.682;37.462;2023-02-15T06:19:43;5.63;;;2.78;;
51384;SDS011;37478;55.682;37.462;2023-02-15T06:22:08;6.13;;;3.00;;
51384;SDS011;37478;55.682;37.462;2023-02-15T06:24:34;10.32;;;3.80;;
51384;SDS011;37478;55.682;37.462;2023-02-15T06:26:59;4.90;;;2.42;;
51384;SDS011;37478;55.682;37.462;2023-02-15T06:29:24;6.95;;;2.85;;
51384;SDS011;37478;55.682;37.462;2023-02-15T06:31:50;3.75;;;2.90;;
51384;SDS011;37478;55.682;37.462;2023-02-15T06:34:15;5.63;;;2.92;;
51384;SDS011;37478;55.682;37.462;2023-02-15T06:36:41;5.78;;;2.58;;
51384;SDS011;37478;55.682;37.462;2023-02-15T06:39:06;5.35;;;2.95;;
51384;SDS011;37478;55.682;37.462;2023-02-15T06:41:31;7.25;;;2.63;;
51384;SDS011;37478;55.682;37.462;2023-02-15T06:43:56;6.35;;;3.15;;
51384;SDS011;37478;55.682;37.462;2023-02-15T06:46:22;6.60;;;3.45;;
51384;SDS011;37478;55.682;37.462;2023-02-15T06:48:47;7.72;;;3.30;;
51384;SDS011;37478;55.682;37.462;2023-02-15T06:51:13;6.68;;;3.38;;
51384;SDS011;37478;55.682;37.462;2023-02-15T06:53:38;3.20;;;2.20;;
51384;SDS011;37478;55.682;37.462;2023-02-15T06:56:06;10.40;;;3.42;;
51384;SDS011;37478;55.682;37.462;2023-02-15T06:58:34;9.45;;;3.03;;
51384;SDS011;37478;55.682;37.462;2023-02-15T07:00:59;5.40;;;2.38;;
51384;SDS011;37478;55.682;37.462;2023-02-15T07:03:24;5.22;;;2.10;;
51384;SDS011;37478;55.682;37.462;2023-02-15T07:05:53;6.72;;;2.83;;
51384;SDS011;37478;55.682;37.462;2023-02-15T07:08:19;6.80;;;2.13;;
51384;SDS011;37478;55.682;37.462;2023-02-15T07:10:45;5.30;;;3.13;;
51384;SDS011;37478;55.682;37.462;2023-02-15T07:13:10;5.32;;;2.42;;
51384;SDS011;37478;55.682;37.462;2023-02-15T07:15:36;9.23;;;2.92;;
51384;SDS011;37478;55.682;37.462;2023-02-15T07:18:01;3.47;;;2.10;;
51384;SDS011;37478;55.682;37.462;2023-02-15T07:20:26;5.50;;;2.72;;
51384;SDS011;37478;55.682;37.462;2023-02-15T07:22:51;3.25;;;2.35;;
51384;SDS011;37478;55.682;37.462;2023-02-15T07:25:17;8.07;;;3.22;;
51384;SDS011;37478;55.682;37.462;2023-02-15T07:27:43;4.43;;;2.33;;
51384;SDS011;37478;55.682;37.462;2023-02-15T07:30:10;7.82;;;2.97;;
51384;SDS011;37478;55.682;37.462;2023-02-15T07:32:36;7.93;;;3.40;;
51384;SDS011;37478;55.682;37.462;2023-02-15T07:35:01;7.05;;;3.25;;
51384;SDS011;37478;55.682;37.462;2023-02-15T07:37:27;8.63;;;2.67;;
51384;SDS011;37478;55.682;37.462;2023-02-15T07:39:52;7.43;;;3.08;;
51384;SDS011;37478;55.682;37.462;2023-02-15T07:42:17;4.25;;;2.50;;
51384;SDS011;37478;55.682;37.462;2023-02-15T07:44:44;4.78;;;2.78;;
51384;SDS011;37478;55.682;37.462;2023-02-15T07:47:10;6.97;;;3.13;;
51384;SDS011;37478;55.682;37.462;2023-02-15T07:49:35;4.88;;;2.35;;
51384;SDS011;37478;55.682;37.462;2023-02-15T07:52:01;8.02;;;3.30;;
51384;SDS011;37478;55.682;37.462;2023-02-15T07:54:26;8.02;;;2.67;;
51384;SDS011;37478;55.682;37.462;2023-02-15T07:56:52;6.97;;;2.95;;
51384;SDS011;37478;55.682;37.462;2023-02-15T07:59:17;8.10;;;3.38;;
51384;SDS011;37478;55.682;37.462;2023-02-15T08:01:42;7.20;;;3.05;;
51384;SDS011;37478;55.682;37.462;2023-02-15T08:04:10;6.63;;;3.20;;
51384;SDS011;37478;55.682;37.462;2023-02-15T08:06:36;14.07;;;4.00;;
51384;SDS011;37478;55.682;37.462;2023-02-15T08:09:05;8.05;;;3.42;;
51384;SDS011;37478;55.682;37.462;2023-02-15T08:11:32;9.35;;;3.08;;
51384;SDS011;37478;55.682;37.462;2023-02-15T08:13:58;6.75;;;3.03;;
51384;SDS011;37478;55.682;37.462;2023-02-15T08:18:50;6.30;;;3.08;;
51384;SDS011;37478;55.682;37.462;2023-02-15T08:21:15;9.45;;;3.03;;
51384;SDS011;37478;55.682;37.462;2023-02-15T08:23:41;8.52;;;3.72;;
51384;SDS011;37478;55.682;37.462;2023-02-15T08:26:06;4.18;;;2.47;;
51384;SDS011;37478;55.682;37.462;2023-02-15T08:28:31;4.93;;;3.35;;
51384;SDS011;37478;55.682;37.462;2023-02-15T08:31:06;6.00;;;2.58;;
51384;SDS011;37478;55.682;37.462;2023-02-15T08:33:32;7.40;;;2.80;;
51384;SDS011;37478;55.682;37.462;2023-02-15T08:36:02;6.15;;;2.65;;
51384;SDS011;37478;55.682;37.462;2023-02-15T08:38:27;5.07;;;3.00;;
51384;SDS011;37478;55.682;37.462;2023-02-15T08:40:52;5.72;;;3.03;;
51384;SDS011;37478;55.682;37.462;2023-02-15T08:43:18;10.52;;;3.33;;
51384;SDS011;37478;55.682;37.462;2023-02-15T08:45:43;7.53;;;3.35;;
51384;SDS011;37478;55.682;37.462;2023-02-15T08:48:08;6.60;;;2.63;;
51384;SDS011;37478;55.682;37.462;2023-02-15T08:50:34;14.13;;;3.47;;
51384;SDS011;37478;55.682;37.462;2023-02-15T08:52:59;4.97;;;2.60;;
51384;SDS011;37478;55.682;37.462;2023-02-15T08:55:25;7.53;;;2.70;;
51384;SDS011;37478;55.682;37.462;2023-02-15T08:57:50;5.63;;;2.80;;
51384;SDS011;37478;55.682;37.462;2023-02-15T09:00:15;6.53;;;2.10;;
51384;SDS011;37478;55.682;37.462;2023-02-15T09:02:42;6.53;;;2.83;;
51384;SDS011;37478;55.682;37.462;2023-02-15T09:05:07;10.48;;;3.75;;
51384;SDS011;37478;55.682;37.462;2023-02-15T09:07:32;3.38;;;2.35;;
51384;SDS011;37478;55.682;37.462;2023-02-15T09:09:58;5.60;;;2.35;;
51384;SDS011;37478;55.682;37.462;2023-02-15T09:12:23;4.97;;;2.65;;
51384;SDS011;37478;55.682;37.462;2023-02-15T09:14:48;5.70;;;2.70;;
51384;SDS011;37478;55.682;37.462;2023-02-15T09:17:13;6.88;;;2.40;;
51384;SDS011;37478;55.682;37.462;2023-02-15T09:19:39;6.80;;;2.90;;
51384;SDS011;37478;55.682;37.462;2023-02-15T09:22:04;9.55;;;3.03;;
51384;SDS011;37478;55.682;37.462;2023-02-15T09:24:31;14.98;;;2.88;;
51384;SDS011;37478;55.682;37.462;2023-02-15T09:26:57;12.63;;;2.63;;
51384;SDS011;37478;55.682;37.462;2023-02-15T09:29:22;4.60;;;2.63;;
51384;SDS011;37478;55.682;37.462;2023-02-15T09:31:48;5.38;;;2.65;;
51384;SDS011;37478;55.682;37.462;2023-02-15T09:34:15;6.50;;;2.60;;
51384;SDS011;37478;55.682;37.462;2023-02-15T09:36:41;4.47;;;2.53;;
51384;SDS011;37478;55.682;37.462;2023-02-15T09:39:08;3.83;;;1.67;;
51384;SDS011;37478;55.682;37.462;2023-02-15T09:49:28;6.13;;;2.42;;
51384;SDS011;37478;55.682;37.462;2023-02-15T09:59:57;6.70;;;2.65;;
51384;SDS011;37478;55.682;37.462;2023-02-15T10:04:57;1.98;;;1.52;;
51384;SDS011;37478;55.682;37.462;2023-02-15T10:27:37;4.50;;;2.17;;
51384;SDS011;37478;55.682;37.462;2023-02-15T10:32:35;3.72;;;2.05;;
51384;SDS011;37478;55.682;37.462;2023-02-15T10:35:10;3.13;;;1.23;;
51384;SDS011;37478;55.682;37.462;2023-02-15T10:50:36;5.68;;;2.15;;
51384;SDS011;37478;55.682;37.462;2023-02-15T10:55:52;3.15;;;1.98;;
51384;SDS011;37478;55.682;37.462;2023-02-15T11:03:34;4.90;;;1.65;;
51384;SDS011;37478;55.682;37.462;2023-02-15T11:08:27;2.40;;;1.88;;
51384;SDS011;37478;55.682;37.462;2023-02-15T11:10:55;3.35;;;1.73;;
51384;SDS011;37478;55.682;37.462;2023-02-15T11:13:23;5.40;;;1.65;;
51384;SDS011;37478;55.682;37.462;2023-02-15T11:23:23;3.08;;;1.95;;
51384;SDS011;37478;55.682;37.462;2023-02-15T11:25:54;6.00;;;2.70;;
51384;SDS011;37478;55.682;37.462;2023-02-15T11:28:30;6.57;;;1.90;;
51384;SDS011;37478;55.682;37.462;2023-02-15T11:30:56;6.50;;;3.57;;
51384;SDS011;37478;55.682;37.462;2023-02-15T11:33:45;3.90;;;2.45;;
51384;SDS011;37478;55.682;37.462;2023-02-15T11:36:11;3.73;;;2.67;;
51384;SDS011;37478;55.682;37.462;2023-02-15T11:38:38;3.20;;;1.67;;
51384;SDS011;37478;55.682;37.462;2023-02-15T11:41:11;2.40;;;1.83;;
51384;SDS011;37478;55.682;37.462;2023-02-15T11:46:04;8.93;;;2.50;;
51384;SDS011;37478;55.682;37.462;2023-02-15T11:48:30;6.55;;;3.10;;
51384;SDS011;37478;55.682;37.462;2023-02-15T11:50:56;5.68;;;3.40;;
51384;SDS011;37478;55.682;37.462;2023-02-15T11:53:21;6.20;;;2.65;;
51384;SDS011;37478;55.682;37.462;2023-02-15T11:55:49;5.20;;;2.58;;
51384;SDS011;37478;55.682;37.462;2023-02-15T12:00:55;5.78;;;3.35;;
51384;SDS011;37478;55.682;37.462;2023-02-15T12:03:24;3.63;;;2.00;;
51384;SDS011;37478;55.682;37.462;2023-02-15T12:05:54;3.35;;;2.03;;
51384;SDS011;37478;55.682;37.462;2023-02-15T12:08:22;5.13;;;2.67;;
51384;SDS011;37478;55.682;37.462;2023-02-15T12:13:16;4.85;;;2.72;;
51384;SDS011;37478;55.682;37.462;2023-02-15T12:15:42;2.75;;;1.55;;
51384;SDS011;37478;55.682;37.462;2023-02-15T12:20:52;3.63;;;1.85;;
51384;SDS011;37478;55.682;37.462;2023-02-15T12:23:17;3.20;;;2.28;;
51384;SDS011;37478;55.682;37.462;2023-02-15T12:25:52;2.05;;;1.33;;
51384;SDS011;37478;55.682;37.462;2023-02-15T12:30:51;5.30;;;2.33;;
51384;SDS011;37478;55.682;37.462;2023-02-15T12:33:30;6.95;;;1.98;;
51384;SDS011;37478;55.682;37.462;2023-02-15T12:35:59;2.92;;;1.63;;
51384;SDS011;37478;55.682;37.462;2023-02-15T12:38:31;3.08;;;1.60;;
51384;SDS011;37478;55.682;37.462;2023-02-15T12:41:43;2.17;;;1.50;;
51384;SDS011;37478;55.682;37.462;2023-02-15T12:43:42;3.78;;;2.03;;
51384;SDS011;37478;55.682;37.462;2023-02-15T12:46:28;3.05;;;1.98;;
51384;SDS011;37478;55.682;37.462;2023-02-15T12:49:06;1.80;;;1.23;;
51384;SDS011;37478;55.682;37.462;2023-02-15T12:51:42;5.82;;;1.95;;
51384;SDS011;37478;55.682;37.462;2023-02-15T12:54:30;3.25;;;1.35;;
51384;SDS011;37478;55.682;37.462;2023-02-15T12:56:53;6.97;;;1.10;;
51384;SDS011;37478;55.682;37.462;2023-02-15T12:59:18;3.30;;;1.63;;
51384;SDS011;37478;55.682;37.462;2023-02-15T13:01:47;1.75;;;1.00;;
51384;SDS011;37478;55.682;37.462;2023-02-15T13:04:15;4.35;;;1.17;;
51384;SDS011;37478;55.682;37.462;2023-02-15T13:06:47;4.35;;;1.40;;
51384;SDS011;37478;55.682;37.462;2023-02-15T13:11:47;2.55;;;1.70;;
51384;SDS011;37478;55.682;37.462;2023-02-15T13:14:19;2.25;;;1.20;;
51384;SDS011;37478;55.682;37.462;2023-02-15T13:16:47;1.88;;;0.70;;
51384;SDS011;37478;55.682;37.462;2023-02-15T13:21:39;1.95;;;1.08;;
51384;SDS011;37478;55.682;37.462;2023-02-15T13:26:31;5.03;;;2.60;;
51384;SDS011;37478;55.682;37.462;2023-02-15T13:28:58;2.22;;;1.23;;
51384;SDS011;37478;55.682;37.462;2023-02-15T13:31:26;3.20;;;1.30;;
51384;SDS011;37478;55.682;37.462;2023-02-15T13:36:40;2.05;;;1.40;;
51384;SDS011;37478;55.682;37.462;2023-02-15T13:39:51;2.28;;;0.93;;
51384;SDS011;37478;55.682;37.462;2023-02-15T13:42:14;2.58;;;1.55;;
51384;SDS011;37478;55.682;37.462;2023-02-15T13:52:19;2.17;;;1.40;;
51384;SDS011;37478;55.682;37.462;2023-02-15T14:20:41;1.55;;;1.08;;
51384;SDS011;37478;55.682;37.462;2023-02-15T14:28:27;8.98;;;1.52;;
51384;SDS011;37478;55.682;37.462;2023-02-15T14:30:55;4.22;;;1.80;;
51384;SDS011;37478;55.682;37.462;2023-02-15T14:35:55;9.85;;;1.17;;
51384;SDS011;37478;55.682;37.462;2023-02-15T14:46:27;2.83;;;2.33;;
51384;SDS011;37478;55.682;37.462;2023-02-15T14:48:55;2.53;;;1.60;;
51384;SDS011;37478;55.682;37.462;2023-02-15T14:52:21;3.92;;;1.80;;
51384;SDS011;37478;55.682;37.462;2023-02-15T14:56:41;5.13;;;1.45;;
51384;SDS011;37478;55.682;37.462;2023-02-15T14:59:13;2.10;;;1.67;;
51384;SDS011;37478;55.682;37.462;2023-02-15T15:01:39;1.60;;;1.20;;
51384;SDS011;37478;55.682;37.462;2023-02-15T15:04:07;1.65;;;1.25;;
51384;SDS011;37478;55.682;37.462;2023-02-15T15:06:37;3.53;;;1.27;;
51384;SDS011;37478;55.682;37.462;2023-02-15T15:09:12;2.10;;;1.30;;
51384;SDS011;37478;55.682;37.462;2023-02-15T15:11:45;0.70;;;0.70;;
51384;SDS011;37478;55.682;37.462;2023-02-15T15:14:36;2.38;;;1.23;;
51384;SDS011;37478;55.682;37.462;2023-02-15T15:17:02;1.73;;;0.77;;
51384;SDS011;37478;55.682;37.462;2023-02-15T15:22:17;2.53;;;1.30;;
51384;SDS011;37478;55.682;37.462;2023-02-15T15:29:52;3.30;;;1.08;;
51384;SDS011;37478;55.682;37.462;2023-02-15T15:32:19;1.13;;;0.80;;
51384;SDS011;37478;55.682;37.462;2023-02-15T15:42:32;2.13;;;1.00;;
51384;SDS011;37478;55.682;37.462;2023-02-15T15:45:03;6.07;;;1.48;;
51384;SDS011;37478;55.682;37.462;2023-02-15T15:50:10;1.38;;;0.93;;
51384;SDS011;37478;55.682;37.462;2023-02-15T15:52:36;1.15;;;0.98;;
51384;SDS011;37478;55.682;37.462;2023-02-15T15:55:06;1.08;;;0.70;;
51384;SDS011;37478;55.682;37.462;2023-02-15T15:57:39;1.17;;;1.00;;
51384;SDS011;37478;55.682;37.462;2023-02-15T16:00:23;3.30;;;0.75;;
51384;SDS011;37478;55.682;37.462;2023-02-15T16:02:51;1.33;;;0.85;;
51384;SDS011;37478;55.682;37.462;2023-02-15T16:05:16;1.08;;;0.77;;
51384;SDS011;37478;55.682;37.462;2023-02-15T16:07:41;4.20;;;1.00;;
51384;SDS011;37478;55.682;37.462;2023-02-15T16:10:07;2.35;;;0.77;;
51384;SDS011;37478;55.682;37.462;2023-02-15T16:12:45;1.92;;;1.10;;
51384;SDS011;37478;55.682;37.462;2023-02-15T16:18:13;1.55;;;0.80;;
51384;SDS011;37478;55.682;37.462;2023-02-15T16:20:39;0.98;;;0.93;;
51384;SDS011;37478;55.682;37.462;2023-02-15T16:28:47;1.48;;;0.98;;
51384;SDS011;37478;55.682;37.462;2023-02-15T16:31:13;1.52;;;1.27;;
51384;SDS011;37478;55.682;37.462;2023-02-15T16:33:40;2.53;;;1.00;;
51384;SDS011;37478;55.682;37.462;2023-02-15T16:36:06;1.27;;;0.98;;
51384;SDS011;37478;55.682;37.462;2023-02-15T16:41:07;1.55;;;1.02;;
51384;SDS011;37478;55.682;37.462;2023-02-15T16:43:33;1.10;;;1.00;;
51384;SDS011;37478;55.682;37.462;2023-02-15T16:46:03;1.80;;;1.45;;
51384;SDS011;37478;55.682;37.462;2023-02-15T16:48:29;1.13;;;1.02;;
51384;SDS011;37478;55.682;37.462;2023-02-15T16:50:55;1.00;;;0.77;;
51384;SDS011;37478;55.682;37.462;2023-02-15T16:53:23;1.83;;;0.65;;
51384;SDS011;37478;55.682;37.462;2023-02-15T16:55:50;0.65;;;0.50;;
51384;SDS011;37478;55.682;37.462;2023-02-15T16:58:16;0.45;;;0.45;;
51384;SDS011;37478;55.682;37.462;2023-02-15T17:00:43;1.27;;;0.68;;
51384;SDS011;37478;55.682;37.462;2023-02-15T17:08:14;1.60;;;0.80;;
51384;SDS011;37478;55.682;37.462;2023-02-15T17:10:46;0.52;;;0.50;;
51384;SDS011;37478;55.682;37.462;2023-02-15T17:13:25;1.30;;;0.75;;
51384;SDS011;37478;55.682;37.462;2023-02-15T17:18:44;3.67;;;1.15;;
51384;SDS011;37478;55.682;37.462;2023-02-15T17:21:17;1.27;;;1.17;;
51384;SDS011;37478;55.682;37.462;2023-02-15T17:23:44;2.00;;;1.30;;
51384;SDS011;37478;55.682;37.462;2023-02-15T17:26:21;1.08;;;0.55;;
51384;SDS011;37478;55.682;37.462;2023-02-15T17:28:51;1.98;;;1.13;;
51384;SDS011;37478;55.682;37.462;2023-02-15T17:31:18;2.42;;;1.10;;
51384;SDS011;37478;55.682;37.462;2023-02-15T17:33:43;1.17;;;0.88;;
51384;SDS011;37478;55.682;37.462;2023-02-15T17:36:13;1.40;;;0.77;;
51384;SDS011;37478;55.682;37.462;2023-02-15T17:38:58;5.38;;;1.20;;
51384;SDS011;37478;55.682;37.462;2023-02-15T17:41:28;1.52;;;1.42;;
51384;SDS011;37478;55.682;37.462;2023-02-15T17:43:53;1.17;;;1.02;;
51384;SDS011;37478;55.682;37.462;2023-02-15T17:46:19;2.17;;;1.58;;
51384;SDS011;37478;55.682;37.462;2023-02-15T17:48:48;2.90;;;1.33;;
51384;SDS011;37478;55.682;37.462;2023-02-15T17:51:14;0.93;;;0.85;;
51384;SDS011;37478;55.682;37.462;2023-02-15T17:53:40;2.85;;;1.65;;
51384;SDS011;37478;55.682;37.462;2023-02-15T17:56:05;1.60;;;1.50;;
51384;SDS011;37478;55.682;37.462;2023-02-15T17:58:37;3.67;;;1.67;;
51384;SDS011;37478;55.682;37.462;2023-02-15T18:01:04;2.17;;;1.20;;
51384;SDS011;37478;55.682;37.462;2023-02-15T18:03:50;3.50;;;1.80;;
51384;SDS011;37478;55.682;37.462;2023-02-15T18:06:34;2.95;;;1.92;;
51384;SDS011;37478;55.682;37.462;2023-02-15T18:09:19;2.50;;;1.60;;
51384;SDS011;37478;55.682;37.462;2023-02-15T18:12:17;2.20;;;1.60;;
51384;SDS011;37478;55.682;37.462;2023-02-15T18:14:43;1.77;;;1.25;;
51384;SDS011;37478;55.682;37.462;2023-02-15T18:17:10;4.00;;;1.52;;
51384;SDS011;37478;55.682;37.462;2023-02-15T18:19:35;1.65;;;1.25;;
51384;SDS011;37478;55.682;37.462;2023-02-15T18:22:01;2.40;;;1.00;;
51384;SDS011;37478;55.682;37.462;2023-02-15T18:24:26;3.90;;;1.63;;
51384;SDS011;37478;55.682;37.462;2023-02-15T18:26:52;1.35;;;0.93;;
51384;SDS011;37478;55.682;37.462;2023-02-15T18:29:18;1.60;;;1.10;;